createdAt,value
2022-11-05T00:00:22.364Z,100135.06
2022-11-05T00:03:07.936Z,100138.50
2022-11-05T00:05:55.085Z,100144.44
2022-11-05T00:08:40.540Z,100159.44
2022-11-05T00:11:11.474Z,100161.19
2022-11-05T00:13:59.260Z,100159.66
2022-11-05T00:16:45.506Z,100155.31
2022-11-05T00:19:15.007Z,100154.81
2022-11-05T00:22:01.700Z,100160.06
2022-11-05T00:24:47.092Z,100159.19
2022-11-05T00:27:15.012Z,100156.88
2022-11-05T00:29:43.006Z,100158.66
2022-11-05T00:32:10.940Z,100161.25
2022-11-05T00:34:38.847Z,100154.69
2022-11-05T00:37:08.155Z,100158.75
2022-11-05T00:39:36.055Z,100157.00
2022-11-05T00:42:21.532Z,100162.03
2022-11-05T00:45:04.574Z,100164.69
2022-11-05T00:47:51.304Z,100166.22
2022-11-05T00:50:20.197Z,100169.66
2022-11-05T00:52:59.694Z,100169.75
2022-11-05T00:55:33.420Z,100167.88
2022-11-05T00:58:02.959Z,100167.16
2022-11-05T01:00:32.893Z,100158.06
2022-11-05T01:03:02.936Z,100164.06
2022-11-05T01:05:31.723Z,100153.56
2022-11-05T01:08:02.176Z,100147.63
2022-11-05T01:10:30.496Z,100139.75
2022-11-05T01:12:59.141Z,100140.19
2022-11-05T01:15:27.228Z,100151.94
2022-11-05T01:17:55.141Z,100144.50
2022-11-05T01:20:23.371Z,100148.88
2022-11-05T01:22:51.276Z,100145.44
2022-11-05T01:25:20.657Z,100136.63
2022-11-05T01:27:48.585Z,100141.81
2022-11-05T01:30:16.576Z,100141.34
2022-11-05T01:32:44.553Z,100132.91
2022-11-05T01:35:14.677Z,100137.03
2022-11-05T01:37:43.026Z,100126.81
2022-11-05T01:40:13.115Z,100129.00
2022-11-05T01:42:42.407Z,100117.88
2022-11-05T01:45:15.012Z,100116.59
2022-11-05T01:47:59.512Z,100119.63
2022-11-05T01:50:32.860Z,100115.50
2022-11-05T01:53:06.807Z,100108.91
2022-11-05T01:55:38.568Z,100105.38
2022-11-05T01:58:10.533Z,100092.44
2022-11-05T02:00:38.972Z,100097.78
2022-11-05T02:03:07.192Z,100094.19
2022-11-05T02:05:36.147Z,100103.25
2022-11-05T02:08:04.437Z,100105.72
2022-11-05T02:10:33.325Z,100103.53
2022-11-05T02:13:01.240Z,100104.88
2022-11-05T02:15:41.007Z,100112.69
2022-11-05T02:18:21.296Z,100119.38
2022-11-05T02:21:01.649Z,100119.38
2022-11-05T02:23:52.360Z,100117.59
2022-11-05T02:26:45.005Z,100107.25
2022-11-05T02:29:42.169Z,100107.44
2022-11-05T02:32:19.350Z,100115.91
2022-11-05T02:34:56.800Z,100111.22
2022-11-05T02:37:39.153Z,100114.19
2022-11-05T02:40:15.265Z,100102.88
2022-11-05T02:42:47.249Z,100109.03
2022-11-05T02:45:27.244Z,100100.94
2022-11-05T02:48:04.741Z,100097.16
2022-11-05T02:50:38.505Z,100096.53
2022-11-05T02:53:12.516Z,100100.63
2022-11-05T02:55:43.694Z,100105.84
2022-11-05T02:58:12.808Z,100104.34
2022-11-05T03:00:45.888Z,100115.63
2022-11-05T03:03:23.589Z,100107.53
2022-11-05T03:06:02.430Z,100105.22
2022-11-05T03:08:42.310Z,100102.72
2022-11-05T03:11:15.619Z,100090.72
2022-11-05T03:13:54.585Z,100126.72
2022-11-05T03:16:31.009Z,100118.22
2022-11-05T03:19:07.920Z,100120.81
2022-11-05T03:21:46.423Z,100125.69
2022-11-05T03:24:19.365Z,100127.81
2022-11-05T03:26:51.980Z,100124.13
2022-11-05T03:29:25.311Z,100125.31
2022-11-05T03:31:57.248Z,100122.03
2022-11-05T03:34:31.714Z,100123.34
2022-11-05T03:37:00.399Z,100120.16
2022-11-05T03:39:32.620Z,100117.97
2022-11-05T03:42:05.497Z,100114.78
2022-11-05T03:44:37.734Z,100130.13
2022-11-05T03:47:08.253Z,100131.91
2022-11-05T03:49:41.538Z,100129.75
2022-11-05T03:52:13.347Z,100132.41
2022-11-05T03:54:41.849Z,100130.88
2022-11-05T03:57:13.683Z,100136.00
2022-11-05T03:59:44.859Z,100132.44
2022-11-05T04:02:15.171Z,100118.44
2022-11-05T04:04:44.918Z,100129.47
2022-11-05T04:07:31.102Z,100126.72
2022-11-05T04:10:16.465Z,100117.38
2022-11-05T04:13:01.982Z,100119.59
2022-11-05T04:15:30.747Z,100124.38
2022-11-05T04:17:59.118Z,100115.34
2022-11-05T04:20:46.215Z,100109.19
2022-11-05T04:23:31.699Z,100115.56
2022-11-05T04:25:59.631Z,100114.13
2022-11-05T04:28:47.600Z,100118.41
2022-11-05T04:31:14.495Z,100119.81
2022-11-05T04:33:42.482Z,100125.13
2022-11-05T04:36:11.856Z,100120.97
2022-11-05T04:38:39.757Z,100124.34
2022-11-05T04:41:14.792Z,100129.75
2022-11-05T04:43:42.734Z,100126.78
2022-11-05T04:46:11.205Z,100125.84
2022-11-05T04:48:39.689Z,100129.38
2022-11-05T04:51:07.857Z,100120.38
2022-11-05T04:53:37.173Z,100114.88
2022-11-05T04:56:12.415Z,100110.09
2022-11-05T04:58:41.280Z,100098.00
2022-11-05T05:01:13.645Z,100111.59
2022-11-05T05:03:42.023Z,100107.16
2022-11-05T05:06:10.314Z,100114.13
2022-11-05T05:08:39.623Z,100117.56
2022-11-05T05:11:10.204Z,100122.53
2022-11-05T05:13:38.337Z,100125.97
2022-11-05T05:16:07.264Z,100126.78
2022-11-05T05:18:35.988Z,100144.19
2022-11-05T05:21:21.666Z,100145.03
2022-11-05T05:23:50.981Z,100127.44
2022-11-05T05:26:18.921Z,100137.28
2022-11-05T05:28:46.920Z,100151.41
2022-11-05T05:31:15.112Z,100144.28
2022-11-05T05:33:43.021Z,100149.50
2022-11-05T05:36:11.686Z,100154.03
2022-11-05T05:38:39.689Z,100147.03
2022-11-05T05:41:09.007Z,100158.19
2022-11-05T05:43:36.993Z,100157.72
2022-11-05T05:46:05.905Z,100166.03
2022-11-05T05:48:33.896Z,100174.34
2022-11-05T05:51:02.906Z,100175.88
2022-11-05T05:53:31.251Z,100181.66
2022-11-05T05:55:59.792Z,100177.88
2022-11-05T05:58:35.120Z,100183.25
2022-11-05T06:01:04.121Z,100180.53
2022-11-05T06:03:32.032Z,100185.09
2022-11-05T06:06:03.910Z,100185.00
2022-11-05T06:08:32.661Z,100188.22
2022-11-05T06:11:01.624Z,100188.47
2022-11-05T06:13:31.080Z,100200.47
2022-11-05T06:16:02.244Z,100194.69
2022-11-05T06:18:30.299Z,100206.78
2022-11-05T06:21:02.303Z,100207.16
2022-11-05T06:23:31.740Z,100213.19
2022-11-05T06:26:02.468Z,100205.63
2022-11-05T06:28:31.828Z,100213.59
2022-11-05T06:30:59.724Z,100206.34
2022-11-05T06:33:28.175Z,100210.59
2022-11-05T06:35:59.220Z,100213.94
2022-11-05T06:38:27.502Z,100215.09
2022-11-05T06:40:55.416Z,100211.19
2022-11-05T06:43:23.331Z,100212.47
2022-11-05T06:45:52.604Z,100212.56
2022-11-05T06:48:20.501Z,100202.97
2022-11-05T06:50:48.503Z,100213.59
2022-11-05T06:53:16.892Z,100205.97
2022-11-05T06:55:47.929Z,100219.88
2022-11-05T06:58:16.745Z,100223.72
2022-11-05T07:00:44.803Z,100221.63
2022-11-05T07:03:14.825Z,100225.31
2022-11-05T07:05:45.144Z,100222.09
2022-11-05T07:08:13.176Z,100215.56
2022-11-05T07:10:41.199Z,100216.22
2022-11-05T07:13:09.879Z,100221.47
2022-11-05T07:15:39.030Z,100214.94
2022-11-05T07:18:08.389Z,100213.16
2022-11-05T07:20:37.829Z,100208.50
2022-11-05T07:23:08.009Z,100211.69
2022-11-05T07:25:36.373Z,100206.72
2022-11-05T07:28:05.269Z,100208.63
2022-11-05T07:30:34.619Z,100215.16
2022-11-05T07:33:02.770Z,100213.47
2022-11-05T07:35:30.828Z,100209.88
2022-11-05T07:38:00.291Z,100206.56
2022-11-05T07:40:30.141Z,100207.28
2022-11-05T07:42:59.674Z,100211.97
2022-11-05T07:45:29.934Z,100211.94
2022-11-05T07:48:00.473Z,100210.31
2022-11-05T07:50:31.789Z,100208.66
2022-11-05T07:53:05.855Z,100203.13
2022-11-05T07:55:35.028Z,100200.50
2022-11-05T07:58:03.275Z,100194.84
2022-11-05T08:00:31.604Z,100192.38
2022-11-05T08:03:07.166Z,100180.09
2022-11-05T08:05:37.913Z,100185.19
2022-11-05T08:08:08.832Z,100194.44
2022-11-05T08:10:37.796Z,100189.44
2022-11-05T08:13:06.325Z,100186.25
2022-11-05T08:15:35.248Z,100186.88
2022-11-05T08:18:04.792Z,100179.84
2022-11-05T08:20:33.208Z,100175.94
2022-11-05T08:23:01.271Z,100185.38
2022-11-05T08:25:30.836Z,100177.41
2022-11-05T08:28:00.295Z,100176.91
2022-11-05T08:30:28.697Z,100179.06
2022-11-05T08:32:58.766Z,100173.34
2022-11-05T08:35:27.089Z,100174.50
2022-11-05T08:37:59.195Z,100175.00
2022-11-05T08:40:27.552Z,100173.56
2022-11-05T08:42:59.469Z,100174.31
2022-11-05T08:45:27.768Z,100177.97
2022-11-05T08:48:00.578Z,100179.06
2022-11-05T08:50:28.757Z,100172.53
2022-11-05T08:52:57.114Z,100176.19
2022-11-05T08:55:25.198Z,100162.38
2022-11-05T08:57:58.472Z,100171.84
2022-11-05T09:00:27.069Z,100172.41
2022-11-05T09:02:55.167Z,100170.06
2022-11-05T09:05:23.188Z,100164.28
2022-11-05T09:07:53.157Z,100164.75
2022-11-05T09:10:24.892Z,100157.16
2022-11-05T09:12:52.909Z,100169.41
2022-11-05T09:15:23.328Z,100171.63
2022-11-05T09:17:51.502Z,100168.09
2022-11-05T09:20:19.577Z,100155.78
2022-11-05T09:22:47.671Z,100164.78
2022-11-05T09:25:16.078Z,100172.63
2022-11-05T09:27:44.271Z,100154.75
2022-11-05T09:30:14.267Z,100161.88
2022-11-05T09:32:44.008Z,100161.28
2022-11-05T09:35:12.073Z,100164.59
2022-11-05T09:37:40.224Z,100160.66
2022-11-05T09:40:08.925Z,100155.94
2022-11-05T09:42:42.244Z,100159.50
2022-11-05T09:45:16.227Z,100152.25
2022-11-05T09:47:50.631Z,100148.44
2022-11-05T09:50:23.676Z,100135.03
2022-11-05T09:52:51.876Z,100138.78
2022-11-05T09:55:29.543Z,100134.19
2022-11-05T09:58:01.699Z,100144.56
2022-11-05T10:00:31.151Z,100146.44
2022-11-05T10:03:05.457Z,100129.31
2022-11-05T10:05:35.191Z,100133.47
2022-11-05T10:08:08.525Z,100144.84
2022-11-05T10:10:42.956Z,100142.50
2022-11-05T10:13:20.633Z,100151.13
2022-11-05T10:15:56.769Z,100149.66
2022-11-05T10:18:29.393Z,100145.75
2022-11-05T10:20:57.959Z,100145.78
2022-11-05T10:23:27.759Z,100145.75
2022-11-05T10:25:58.501Z,100151.47
2022-11-05T10:28:29.048Z,100148.03
2022-11-05T10:31:00.325Z,100147.19
2022-11-05T10:33:34.901Z,100149.53
2022-11-05T10:36:08.657Z,100143.91
2022-11-05T10:38:36.769Z,100138.59
2022-11-05T10:41:20.954Z,100138.78
2022-11-05T10:43:51.596Z,100134.88
2022-11-05T10:46:34.112Z,100122.84
2022-11-05T10:49:18.835Z,100122.56
2022-11-05T10:51:48.384Z,100117.81
2022-11-05T10:54:20.501Z,100122.94
2022-11-05T10:56:48.855Z,100129.69
2022-11-05T10:59:25.147Z,100119.41
2022-11-05T11:02:02.307Z,100125.97
2022-11-05T11:04:37.675Z,100121.75
2022-11-05T11:07:06.591Z,100123.56
2022-11-05T11:09:37.716Z,100123.56
2022-11-05T11:12:08.781Z,100118.91
2022-11-05T11:14:36.838Z,100120.41
2022-11-05T11:17:24.576Z,100117.81
2022-11-05T11:20:19.928Z,100108.72
2022-11-05T11:23:02.569Z,100110.22
2022-11-05T11:25:35.487Z,100107.88
2022-11-05T11:28:06.048Z,100103.94
2022-11-05T11:30:35.262Z,100097.03
2022-11-05T11:33:09.702Z,100087.78
2022-11-05T11:35:40.331Z,100100.00
2022-11-05T11:38:15.122Z,100101.28
2022-11-05T11:40:43.630Z,100100.63
2022-11-05T11:43:22.688Z,100078.88
2022-11-05T11:45:54.780Z,100082.84
2022-11-05T11:48:26.377Z,100089.78
2022-11-05T11:50:57.426Z,100084.97
2022-11-05T11:53:29.321Z,100088.09
2022-11-05T11:56:15.656Z,100089.75
2022-11-05T11:58:47.300Z,100090.59
2022-11-05T12:01:52.877Z,100099.66
2022-11-05T12:04:55.124Z,100090.41
2022-11-05T12:07:46.191Z,100099.16
2022-11-05T12:10:40.253Z,100087.78
2022-11-05T12:13:33.266Z,100095.88
2022-11-05T12:16:08.924Z,100101.47
2022-11-05T12:18:46.254Z,100083.16
2022-11-05T12:21:40.758Z,100098.34
2022-11-05T12:24:24.409Z,100100.31
2022-11-05T12:27:04.343Z,100094.72
2022-11-05T12:29:54.260Z,100099.31
2022-11-05T12:33:00.477Z,100093.75
2022-11-05T12:35:47.053Z,100090.75
2022-11-05T12:38:27.510Z,100081.69
2022-11-05T12:41:12.788Z,100086.31
2022-11-05T12:44:02.121Z,100087.13
2022-11-05T12:46:39.490Z,100076.59
2022-11-05T12:49:24.633Z,100101.28
2022-11-05T12:52:10.482Z,100056.81
2022-11-05T12:54:53.522Z,100080.53
2022-11-05T12:57:24.545Z,100084.81
2022-11-05T12:59:58.114Z,100018.75
2022-11-05T13:02:31.741Z,100077.06
2022-11-05T13:05:02.686Z,100088.09
2022-11-05T13:07:35.699Z,100085.13
2022-11-05T13:10:09.320Z,100092.72
2022-11-05T13:12:42.370Z,100084.31
2022-11-05T13:15:27.986Z,100099.66
2022-11-05T13:18:01.056Z,100101.47
2022-11-05T13:20:32.729Z,100090.75
2022-11-05T13:23:07.157Z,100092.06
2022-11-05T13:25:40.284Z,100085.13
2022-11-05T13:28:20.409Z,100084.78
2022-11-05T13:30:52.553Z,100086.28
2022-11-05T13:33:23.888Z,100077.84
2022-11-05T13:36:16.297Z,100085.97
2022-11-05T13:39:00.364Z,100080.88
2022-11-05T13:41:32.836Z,100095.88
2022-11-05T13:44:26.051Z,100090.09
2022-11-05T13:47:11.963Z,100092.41
2022-11-05T13:50:13.532Z,100094.69
2022-11-05T13:53:01.554Z,100096.19
2022-11-05T13:55:49.764Z,100104.75
2022-11-05T13:58:48.136Z,100105.91
2022-11-05T14:01:28.656Z,100092.56
2022-11-05T14:03:57.929Z,100105.59
2022-11-05T14:06:29.090Z,100110.34
2022-11-05T14:09:01.515Z,100112.03
2022-11-05T14:11:33.058Z,100109.53
2022-11-05T14:14:03.781Z,100103.59
2022-11-05T14:16:51.775Z,100111.03
2022-11-05T14:19:36.260Z,100110.88
2022-11-05T14:22:38.417Z,100117.47
2022-11-05T14:26:03.236Z,100113.19
2022-11-05T14:28:43.676Z,100111.19
2022-11-05T14:32:02.528Z,100114.16
2022-11-05T14:34:40.132Z,100111.88
2022-11-05T14:37:26.641Z,100112.19
2022-11-05T14:39:56.628Z,100118.13
2022-11-05T14:42:28.323Z,100110.38
2022-11-05T14:45:03.379Z,100115.44
2022-11-05T14:47:35.269Z,100112.66
2022-11-05T14:50:11.661Z,100111.34
2022-11-05T14:52:41.769Z,100109.19
2022-11-05T14:55:27.053Z,100107.44
2022-11-05T14:58:21.761Z,100106.94
2022-11-05T15:00:50.480Z,100084.66
2022-11-05T15:04:00.649Z,100100.06
2022-11-05T15:06:32.949Z,100115.47
2022-11-05T15:09:27.971Z,100112.22
2022-11-05T15:12:09.697Z,100109.59
2022-11-05T15:14:42.448Z,100119.19
2022-11-05T15:17:19.583Z,100117.28
2022-11-05T15:19:48.655Z,100119.56
2022-11-05T15:22:28.173Z,100118.22
2022-11-05T15:24:56.806Z,100130.03
2022-11-05T15:27:41.639Z,100126.88
2022-11-05T15:30:16.728Z,100128.38
2022-11-05T15:32:44.734Z,100110.69
2022-11-05T15:35:21.812Z,100125.13
2022-11-05T15:37:56.086Z,100130.72
2022-11-05T15:40:30.221Z,100135.06
2022-11-05T15:43:16.449Z,100145.53
2022-11-05T15:45:44.472Z,100149.34
2022-11-05T15:48:16.714Z,100148.16
2022-11-05T15:50:44.726Z,100150.06
2022-11-05T15:54:15.676Z,100152.91
2022-11-05T15:56:22.461Z,100155.38
2022-11-05T15:58:52.376Z,100158.56
2022-11-05T16:01:28.009Z,100167.28
2022-11-05T16:03:59.487Z,100166.13
2022-11-05T16:06:38.089Z,100168.47
2022-11-05T16:09:07.521Z,100173.66
2022-11-05T16:11:35.575Z,100179.38
2022-11-05T16:14:17.558Z,100169.44
2022-11-05T16:16:46.927Z,100185.69
2022-11-05T16:19:40.218Z,100190.25
2022-11-05T16:22:09.143Z,100184.50
2022-11-05T16:24:38.441Z,100204.41
2022-11-05T16:27:07.147Z,100204.34
2022-11-05T16:29:37.251Z,100207.38
2022-11-05T16:32:08.035Z,100218.38
2022-11-05T16:34:39.412Z,100214.22
2022-11-05T16:37:09.266Z,100211.50
2022-11-05T16:39:38.692Z,100207.13
2022-11-05T16:42:39.378Z,100215.28
2022-11-05T16:45:08.765Z,100218.50
2022-11-05T16:47:36.670Z,100222.47
2022-11-05T16:50:14.576Z,100229.94
2022-11-05T16:52:42.516Z,100229.22
2022-11-05T16:55:11.997Z,100218.22
2022-11-05T16:57:40.314Z,100224.97
2022-11-05T17:00:09.393Z,100235.38
2022-11-05T17:02:37.376Z,100236.38
2022-11-05T17:05:05.728Z,100239.84
2022-11-05T17:07:37.157Z,100234.28
2022-11-05T17:10:09.404Z,100243.66
2022-11-05T17:12:38.786Z,100242.03
2022-11-05T17:15:17.067Z,100242.84
2022-11-05T17:17:45.170Z,100244.66
2022-11-05T17:20:22.656Z,100244.13
2022-11-05T17:22:50.587Z,100244.28
2022-11-05T17:25:18.600Z,100251.84
2022-11-05T17:27:47.943Z,100249.34
2022-11-05T17:30:16.116Z,100248.13
2022-11-05T17:32:44.344Z,100236.69
2022-11-05T17:35:12.939Z,100247.44
2022-11-05T17:37:40.898Z,100254.19
2022-11-05T17:40:13.688Z,100251.72
2022-11-05T17:42:41.741Z,100251.28
2022-11-05T17:45:12.705Z,100251.28
2022-11-05T17:47:41.720Z,100258.31
2022-11-05T17:50:12.029Z,100267.84
2022-11-05T17:52:39.963Z,100263.56
2022-11-05T17:55:16.593Z,100265.06
2022-11-05T17:57:46.337Z,100275.94
2022-11-05T18:00:17.145Z,100272.91
2022-11-05T18:02:46.252Z,100279.38
2022-11-05T18:05:14.473Z,100248.44
2022-11-05T18:07:43.127Z,100273.16
2022-11-05T18:10:11.122Z,100271.91
2022-11-05T18:12:39.181Z,100280.19
2022-11-05T18:15:08.665Z,100274.81
2022-11-05T18:17:38.290Z,100279.34
2022-11-05T18:20:11.692Z,100279.06
2022-11-05T18:22:42.582Z,100293.38
2022-11-05T18:25:11.664Z,100295.09
2022-11-05T18:27:40.146Z,100288.25
2022-11-05T18:30:10.316Z,100280.41
2022-11-05T18:32:40.247Z,100288.06
2022-11-05T18:35:08.766Z,100294.09
2022-11-05T18:37:38.701Z,100301.94
2022-11-05T18:40:08.085Z,100310.22
2022-11-05T18:42:36.157Z,100312.53
2022-11-05T18:45:04.662Z,100302.06
2022-11-05T18:47:33.650Z,100306.03
2022-11-05T18:50:03.490Z,100312.78
2022-11-05T18:52:32.914Z,100311.78
2022-11-05T18:55:01.021Z,100300.16
2022-11-05T18:57:29.351Z,100318.59
2022-11-05T18:59:57.290Z,100314.81
2022-11-05T19:02:25.344Z,100320.53
2022-11-05T19:05:26.825Z,100331.41
2022-11-05T19:07:42.734Z,100325.28
2022-11-05T19:10:10.884Z,100322.78
2022-11-05T19:12:38.809Z,100326.72
2022-11-05T19:15:08.144Z,100328.63
2022-11-05T19:17:36.828Z,100330.16
2022-11-05T19:20:06.034Z,100333.47
2022-11-05T19:22:34.111Z,100332.19
2022-11-05T19:25:03.399Z,100319.00
2022-11-05T19:27:31.335Z,100322.97
2022-11-05T19:29:59.261Z,100335.44
2022-11-05T19:32:27.776Z,100348.97
2022-11-05T19:34:55.691Z,100333.63
2022-11-05T19:37:23.607Z,100355.25
2022-11-05T19:39:52.127Z,100352.53
2022-11-05T19:42:21.461Z,100337.78
2022-11-05T19:44:49.355Z,100344.22
2022-11-05T19:47:17.272Z,100342.19
2022-11-05T19:49:45.204Z,100349.66
2022-11-05T19:52:13.144Z,100348.22
2022-11-05T19:54:41.101Z,100352.97
2022-11-05T19:57:09.045Z,100349.03
2022-11-05T19:59:38.380Z,100353.19
2022-11-05T20:02:09.335Z,100355.59
2022-11-05T20:04:39.829Z,100346.59
2022-11-05T20:07:07.758Z,100353.25
2022-11-05T20:09:35.872Z,100357.69
2022-11-05T20:12:03.789Z,100358.53
2022-11-05T20:14:31.705Z,100358.31
2022-11-05T20:17:01.238Z,100356.69
2022-11-05T20:19:29.267Z,100363.84
2022-11-05T20:22:00.844Z,100356.97
2022-11-05T20:24:28.816Z,100358.72
2022-11-05T20:26:57.712Z,100356.19
2022-11-05T20:29:33.683Z,100359.75
2022-11-05T20:32:05.660Z,100365.38
2022-11-05T20:34:35.044Z,100371.56
2022-11-05T20:37:03.103Z,100377.63
2022-11-05T20:39:31.128Z,100381.06
2022-11-05T20:42:00.653Z,100373.00
2022-11-05T20:44:28.949Z,100367.53
2022-11-05T20:46:57.096Z,100375.09
2022-11-05T20:49:26.699Z,100377.88
2022-11-05T20:51:54.786Z,100375.00
2022-11-05T20:54:23.164Z,100381.31
2022-11-05T20:56:51.081Z,100371.00
2022-11-05T20:59:19.536Z,100378.34
2022-11-05T21:01:47.574Z,100371.78
2022-11-05T21:04:15.564Z,100375.66
2022-11-05T21:06:44.915Z,100383.00
2022-11-05T21:09:13.222Z,100382.06
2022-11-05T21:11:58.903Z,100383.81
2022-11-05T21:14:26.807Z,100388.19
2022-11-05T21:16:54.743Z,100384.84
2022-11-05T21:19:24.069Z,100387.91
2022-11-05T21:21:53.442Z,100388.47
2022-11-05T21:24:21.538Z,100378.28
2022-11-05T21:26:50.419Z,100395.50
2022-11-05T21:29:19.233Z,100382.19
2022-11-05T21:31:47.695Z,100385.81
2022-11-05T21:34:16.078Z,100383.97
2022-11-05T21:36:44.619Z,100388.44
2022-11-05T21:39:14.076Z,100386.88
2022-11-05T21:41:42.792Z,100392.81
2022-11-05T21:44:10.842Z,100389.78
2022-11-05T21:46:38.908Z,100392.38
2022-11-05T21:49:06.828Z,100389.97
2022-11-05T21:51:52.376Z,100396.66
2022-11-05T21:54:38.841Z,100401.84
2022-11-05T21:57:24.127Z,100411.63
2022-11-05T21:59:57.564Z,100404.13
2022-11-05T22:02:28.572Z,100413.91
2022-11-05T22:04:59.975Z,100411.00
2022-11-05T22:07:30.203Z,100417.03
2022-11-05T22:09:59.674Z,100415.78
2022-11-05T22:12:27.671Z,100421.28
2022-11-05T22:14:56.213Z,100420.31
2022-11-05T22:17:24.859Z,100403.56
2022-11-05T22:19:52.810Z,100412.81
2022-11-05T22:22:21.041Z,100421.88
2022-11-05T22:24:49.001Z,100424.38
2022-11-05T22:27:21.530Z,100412.81
2022-11-05T22:29:49.886Z,100409.03
2022-11-05T22:32:18.389Z,100413.41
2022-11-05T22:34:46.338Z,100418.25
2022-11-05T22:37:14.290Z,100419.38
2022-11-05T22:39:42.193Z,100409.47
2022-11-05T22:42:10.412Z,100413.44
2022-11-05T22:44:39.811Z,100408.72
2022-11-05T22:47:07.912Z,100411.00
2022-11-05T22:49:36.041Z,100412.16
2022-11-05T22:52:03.992Z,100417.72
2022-11-05T22:54:37.901Z,100404.22
2022-11-05T22:57:07.153Z,100412.38
2022-11-05T22:59:35.070Z,100417.78
2022-11-05T23:02:09.424Z,100417.22
2022-11-05T23:04:38.486Z,100421.88
2022-11-05T23:07:27.641Z,100417.53
2022-11-05T23:10:13.853Z,100422.06
2022-11-05T23:12:43.693Z,100422.41
2022-11-05T23:15:32.585Z,100426.59
2022-11-05T23:18:19.390Z,100426.59
2022-11-05T23:21:01.185Z,100429.66
2022-11-05T23:23:46.539Z,100422.06
2022-11-05T23:26:31.967Z,100420.91
2022-11-05T23:28:59.869Z,100415.56
2022-11-05T23:31:45.019Z,100424.66
2022-11-05T23:34:14.303Z,100422.97
2022-11-05T23:36:59.804Z,100423.34
2022-11-05T23:39:27.733Z,100422.97
2022-11-05T23:42:12.964Z,100425.75
2022-11-05T23:44:58.477Z,100409.88
2022-11-05T23:47:43.693Z,100414.91
2022-11-05T23:50:12.985Z,100418.97
2022-11-05T23:52:40.929Z,100421.88
2022-11-05T23:55:09.729Z,100417.03
2022-11-05T23:57:38.163Z,100413.06
